sensor_id;sensor_type;location;lat;lon;timestamp;temperature;humidity
33594;DHT22;19920;52.242;20.940;2024-01-10T00:01:50;-6.60;99.90
33594;DHT22;19920;52.242;20.940;2024-01-10T00:04:16;-6.60;99.90
33594;DHT22;19920;52.242;20.940;2024-01-10T00:06:42;-6.60;99.90
33594;DHT22;19920;52.242;20.940;2024-01-10T00:09:08;-6.60;99.90
33594;DHT22;19920;52.242;20.940;2024-01-10T00:11:34;-6.70;99.90
33594;DHT22;19920;52.242;20.940;2024-01-10T00:13:59;-6.70;99.90
33594;DHT22;19920;52.242;20.940;2024-01-10T00:16:26;-6.80;99.90
33594;DHT22;19920;52.242;20.940;2024-01-10T00:18:52;-6.80;99.90
33594;DHT22;19920;52.242;20.940;2024-01-10T00:21:17;-6.80;99.90
33594;DHT22;19920;52.242;20.940;2024-01-10T00:23:43;-6.80;99.90
33594;DHT22;19920;52.242;20.940;2024-01-10T00:26:08;-6.70;99.90
33594;DHT22;19920;52.242;20.940;2024-01-10T00:28:34;-6.80;99.90
33594;DHT22;19920;52.242;20.940;2024-01-10T00:31:00;-6.80;99.90
33594;DHT22;19920;52.242;20.940;2024-01-10T00:33:25;-6.70;99.90
33594;DHT22;19920;52.242;20.940;2024-01-10T00:35:51;-6.70;99.90
33594;DHT22;19920;52.242;20.940;2024-01-10T00:38:16;-6.70;99.90
33594;DHT22;19920;52.242;20.940;2024-01-10T00:40:42;-6.70;99.90
33594;DHT22;19920;52.242;20.940;2024-01-10T00:43:07;-6.70;99.90
33594;DHT22;19920;52.242;20.940;2024-01-10T00:45:33;-6.70;99.90
33594;DHT22;19920;52.242;20.940;2024-01-10T00:47:59;-6.70;99.90
33594;DHT22;19920;52.242;20.940;2024-01-10T00:50:24;-6.60;99.90
33594;DHT22;19920;52.242;20.940;2024-01-10T00:52:50;-6.60;99.90
33594;DHT22;19920;52.242;20.940;2024-01-10T00:55:15;-6.70;99.90
33594;DHT22;19920;52.242;20.940;2024-01-10T00:57:41;-6.70;99.90
33594;DHT22;19920;52.242;20.940;2024-01-10T01:00:08;-6.80;99.90
33594;DHT22;19920;52.242;20.940;2024-01-10T01:02:34;-6.80;99.90
33594;DHT22;19920;52.242;20.940;2024-01-10T01:05:00;-6.80;99.90
33594;DHT22;19920;52.242;20.940;2024-01-10T01:07:26;-6.80;99.90
33594;DHT22;19920;52.242;20.940;2024-01-10T01:09:52;-6.80;99.90
33594;DHT22;19920;52.242;20.940;2024-01-10T01:12:17;-6.70;99.90
33594;DHT22;19920;52.242;20.940;2024-01-10T01:14:43;-6.70;99.90
33594;DHT22;19920;52.242;20.940;2024-01-10T01:17:09;-6.70;99.90
33594;DHT22;19920;52.242;20.940;2024-01-10T01:19:34;-6.70;99.90
33594;DHT22;19920;52.242;20.940;2024-01-10T01:22:00;-6.70;99.90
33594;DHT22;19920;52.242;20.940;2024-01-10T01:24:25;-6.60;99.90
33594;DHT22;19920;52.242;20.940;2024-01-10T01:26:51;-6.50;99.90
33594;DHT22;19920;52.242;20.940;2024-01-10T01:29:17;-6.60;99.90
33594;DHT22;19920;52.242;20.940;2024-01-10T01:31:43;-6.60;99.90
33594;DHT22;19920;52.242;20.940;2024-01-10T01:34:08;-6.70;99.90
33594;DHT22;19920;52.242;20.940;2024-01-10T01:36:34;-6.60;99.90
33594;DHT22;19920;52.242;20.940;2024-01-10T01:39:00;-6.60;99.90
33594;DHT22;19920;52.242;20.940;2024-01-10T01:41:25;-6.70;99.90
33594;DHT22;19920;52.242;20.940;2024-01-10T01:43:51;-6.70;99.90
33594;DHT22;19920;52.242;20.940;2024-01-10T01:46:17;-6.80;99.90
33594;DHT22;19920;52.242;20.940;2024-01-10T01:48:43;-6.80;99.90
33594;DHT22;19920;52.242;20.940;2024-01-10T01:51:09;-6.80;99.90
33594;DHT22;19920;52.242;20.940;2024-01-10T01:53:36;-6.80;99.90
33594;DHT22;19920;52.242;20.940;2024-01-10T01:56:06;-6.80;99.90
33594;DHT22;19920;52.242;20.940;2024-01-10T01:58:31;-6.70;99.90
33594;DHT22;19920;52.242;20.940;2024-01-10T02:00:57;-6.70;99.90
33594;DHT22;19920;52.242;20.940;2024-01-10T02:03:23;-6.70;99.90
33594;DHT22;19920;52.242;20.940;2024-01-10T02:05:49;-6.70;99.90
33594;DHT22;19920;52.242;20.940;2024-01-10T02:08:15;-6.90;99.90
33594;DHT22;19920;52.242;20.940;2024-01-10T02:10:41;-6.90;99.90
33594;DHT22;19920;52.242;20.940;2024-01-10T02:13:06;-7.00;99.90
33594;DHT22;19920;52.242;20.940;2024-01-10T02:15:35;-6.90;99.90
33594;DHT22;19920;52.242;20.940;2024-01-10T02:18:00;-6.80;99.90
33594;DHT22;19920;52.242;20.940;2024-01-10T02:20:26;-6.80;99.90
33594;DHT22;19920;52.242;20.940;2024-01-10T02:22:52;-6.90;99.90
33594;DHT22;19920;52.242;20.940;2024-01-10T02:25:18;-6.80;99.90
33594;DHT22;19920;52.242;20.940;2024-01-10T02:27:43;-6.80;99.90
33594;DHT22;19920;52.242;20.940;2024-01-10T02:30:09;-6.90;99.90
33594;DHT22;19920;52.242;20.940;2024-01-10T02:32:36;-6.80;99.90
33594;DHT22;19920;52.242;20.940;2024-01-10T02:35:03;-6.90;99.90
33594;DHT22;19920;52.242;20.940;2024-01-10T02:37:28;-7.00;99.90
33594;DHT22;19920;52.242;20.940;2024-01-10T02:39:54;-7.00;99.90
33594;DHT22;19920;52.242;20.940;2024-01-10T02:42:20;-7.00;99.90
33594;DHT22;19920;52.242;20.940;2024-01-10T02:44:45;-6.90;99.90
33594;DHT22;19920;52.242;20.940;2024-01-10T02:47:12;-7.00;99.90
33594;DHT22;19920;52.242;20.940;2024-01-10T02:49:38;-7.00;99.90
33594;DHT22;19920;52.242;20.940;2024-01-10T02:52:04;-7.00;99.90
33594;DHT22;19920;52.242;20.940;2024-01-10T02:54:29;-7.00;99.90
33594;DHT22;19920;52.242;20.940;2024-01-10T02:56:55;-6.90;99.90
33594;DHT22;19920;52.242;20.940;2024-01-10T02:59:20;-6.80;99.90
33594;DHT22;19920;52.242;20.940;2024-01-10T03:01:46;-6.80;99.90
33594;DHT22;19920;52.242;20.940;2024-01-10T03:04:12;-6.80;99.90
33594;DHT22;19920;52.242;20.940;2024-01-10T03:06:37;-6.80;99.90
33594;DHT22;19920;52.242;20.940;2024-01-10T03:09:03;-7.00;99.90
33594;DHT22;19920;52.242;20.940;2024-01-10T03:11:28;-6.90;99.90
33594;DHT22;19920;52.242;20.940;2024-01-10T03:14:03;-7.00;99.90
33594;DHT22;19920;52.242;20.940;2024-01-10T03:16:30;-7.00;99.90
33594;DHT22;19920;52.242;20.940;2024-01-10T03:18:55;-7.00;99.90
33594;DHT22;19920;52.242;20.940;2024-01-10T03:21:21;-7.00;99.90
33594;DHT22;19920;52.242;20.940;2024-01-10T03:23:56;-7.00;99.90
33594;DHT22;19920;52.242;20.940;2024-01-10T03:26:23;-6.90;99.90
33594;DHT22;19920;52.242;20.940;2024-01-10T03:28:49;-6.80;99.90
33594;DHT22;19920;52.242;20.940;2024-01-10T03:31:14;-6.90;99.90
33594;DHT22;19920;52.242;20.940;2024-01-10T03:33:40;-7.00;99.90
33594;DHT22;19920;52.242;20.940;2024-01-10T03:36:06;-7.00;99.90
33594;DHT22;19920;52.242;20.940;2024-01-10T03:38:32;-7.10;99.90
33594;DHT22;19920;52.242;20.940;2024-01-10T03:40:57;-7.00;99.90
33594;DHT22;19920;52.242;20.940;2024-01-10T03:43:23;-7.00;99.90
33594;DHT22;19920;52.242;20.940;2024-01-10T03:45:49;-7.00;99.90
33594;DHT22;19920;52.242;20.940;2024-01-10T03:48:14;-7.10;99.90
33594;DHT22;19920;52.242;20.940;2024-01-10T03:50:40;-7.00;99.90
33594;DHT22;19920;52.242;20.940;2024-01-10T03:53:05;-7.10;99.90
33594;DHT22;19920;52.242;20.940;2024-01-10T03:55:31;-7.00;99.90
33594;DHT22;19920;52.242;20.940;2024-01-10T03:57:57;-6.90;99.90
33594;DHT22;19920;52.242;20.940;2024-01-10T04:00:22;-7.00;99.90
33594;DHT22;19920;52.242;20.940;2024-01-10T04:02:48;-7.10;99.90
33594;DHT22;19920;52.242;20.940;2024-01-10T04:05:13;-7.10;99.90
33594;DHT22;19920;52.242;20.940;2024-01-10T04:07:40;-7.10;99.90
33594;DHT22;19920;52.242;20.940;2024-01-10T04:10:07;-7.10;99.90
33594;DHT22;19920;52.242;20.940;2024-01-10T04:12:36;-7.10;99.90
33594;DHT22;19920;52.242;20.940;2024-01-10T04:15:03;-7.10;99.90
33594;DHT22;19920;52.242;20.940;2024-01-10T04:17:29;-7.10;99.90
33594;DHT22;19920;52.242;20.940;2024-01-10T04:19:55;-7.20;99.90
33594;DHT22;19920;52.242;20.940;2024-01-10T04:22:20;-7.20;99.90
33594;DHT22;19920;52.242;20.940;2024-01-10T04:24:46;-7.20;99.90
33594;DHT22;19920;52.242;20.940;2024-01-10T04:27:12;-7.20;99.90
33594;DHT22;19920;52.242;20.940;2024-01-10T04:29:37;-7.20;99.90
33594;DHT22;19920;52.242;20.940;2024-01-10T04:32:03;-7.20;99.90
33594;DHT22;19920;52.242;20.940;2024-01-10T04:34:29;-7.10;99.90
33594;DHT22;19920;52.242;20.940;2024-01-10T04:36:55;-7.20;99.90
33594;DHT22;19920;52.242;20.940;2024-01-10T04:39:20;-7.10;99.90
33594;DHT22;19920;52.242;20.940;2024-01-10T04:41:46;-7.10;99.90
33594;DHT22;19920;52.242;20.940;2024-01-10T04:44:12;-7.10;99.90
33594;DHT22;19920;52.242;20.940;2024-01-10T04:46:37;-7.20;99.90
33594;DHT22;19920;52.242;20.940;2024-01-10T04:49:03;-7.10;99.90
33594;DHT22;19920;52.242;20.940;2024-01-10T04:51:28;-7.10;99.90
33594;DHT22;19920;52.242;20.940;2024-01-10T04:53:54;-7.00;99.90
33594;DHT22;19920;52.242;20.940;2024-01-10T04:56:21;-7.10;99.90
33594;DHT22;19920;52.242;20.940;2024-01-10T04:58:46;-7.10;99.90
33594;DHT22;19920;52.242;20.940;2024-01-10T05:01:12;-7.20;99.90
33594;DHT22;19920;52.242;20.940;2024-01-10T05:03:37;-7.20;99.90
33594;DHT22;19920;52.242;20.940;2024-01-10T05:06:03;-7.20;99.90
33594;DHT22;19920;52.242;20.940;2024-01-10T05:08:30;-7.30;99.90
33594;DHT22;19920;52.242;20.940;2024-01-10T05:10:55;-7.30;99.90
33594;DHT22;19920;52.242;20.940;2024-01-10T05:13:21;-7.30;99.90
33594;DHT22;19920;52.242;20.940;2024-01-10T05:15:46;-7.30;99.90
33594;DHT22;19920;52.242;20.940;2024-01-10T05:18:12;-7.20;99.90
33594;DHT22;19920;52.242;20.940;2024-01-10T05:20:37;-7.20;99.90
33594;DHT22;19920;52.242;20.940;2024-01-10T05:23:03;-7.20;99.90
33594;DHT22;19920;52.242;20.940;2024-01-10T05:25:29;-7.20;99.90
33594;DHT22;19920;52.242;20.940;2024-01-10T05:27:55;-7.20;99.90
33594;DHT22;19920;52.242;20.940;2024-01-10T05:30:20;-7.20;99.90
33594;DHT22;19920;52.242;20.940;2024-01-10T05:32:46;-7.20;99.90
33594;DHT22;19920;52.242;20.940;2024-01-10T05:35:11;-7.30;99.90
33594;DHT22;19920;52.242;20.940;2024-01-10T05:37:37;-7.40;99.90
33594;DHT22;19920;52.242;20.940;2024-01-10T05:40:03;-7.50;99.90
33594;DHT22;19920;52.242;20.940;2024-01-10T05:42:31;-7.60;99.90
33594;DHT22;19920;52.242;20.940;2024-01-10T05:45:00;-7.60;99.90
33594;DHT22;19920;52.242;20.940;2024-01-10T05:47:27;-7.50;99.90
33594;DHT22;19920;52.242;20.940;2024-01-10T05:49:53;-7.40;99.90
33594;DHT22;19920;52.242;20.940;2024-01-10T05:52:19;-7.50;99.90
33594;DHT22;19920;52.242;20.940;2024-01-10T05:54:45;-7.50;99.90
33594;DHT22;19920;52.242;20.940;2024-01-10T05:57:11;-7.50;99.90
33594;DHT22;19920;52.242;20.940;2024-01-10T05:59:37;-7.50;99.90
33594;DHT22;19920;52.242;20.940;2024-01-10T06:02:03;-7.50;99.90
33594;DHT22;19920;52.242;20.940;2024-01-10T06:04:29;-7.60;99.90
33594;DHT22;19920;52.242;20.940;2024-01-10T06:06:59;-7.60;99.90
33594;DHT22;19920;52.242;20.940;2024-01-10T06:09:25;-7.40;99.90
33594;DHT22;19920;52.242;20.940;2024-01-10T06:11:51;-7.30;99.90
33594;DHT22;19920;52.242;20.940;2024-01-10T06:14:17;-7.20;99.90
33594;DHT22;19920;52.242;20.940;2024-01-10T06:16:42;-7.20;99.90
33594;DHT22;19920;52.242;20.940;2024-01-10T06:19:10;-7.10;99.90
33594;DHT22;19920;52.242;20.940;2024-01-10T06:21:36;-7.30;99.90
33594;DHT22;19920;52.242;20.940;2024-01-10T06:24:01;-7.30;99.90
33594;DHT22;19920;52.242;20.940;2024-01-10T06:26:27;-7.30;99.90
33594;DHT22;19920;52.242;20.940;2024-01-10T06:28:53;-7.40;99.90
33594;DHT22;19920;52.242;20.940;2024-01-10T06:31:19;-7.40;99.90
33594;DHT22;19920;52.242;20.940;2024-01-10T06:33:45;-7.40;99.90
33594;DHT22;19920;52.242;20.940;2024-01-10T06:36:11;-7.40;99.90
33594;DHT22;19920;52.242;20.940;2024-01-10T06:38:38;-7.40;99.90
33594;DHT22;19920;52.242;20.940;2024-01-10T06:41:10;-7.30;99.90
33594;DHT22;19920;52.242;20.940;2024-01-10T06:43:39;-7.40;99.90
33594;DHT22;19920;52.242;20.940;2024-01-10T06:46:06;-7.30;99.90
33594;DHT22;19920;52.242;20.940;2024-01-10T06:48:32;-7.40;99.90
33594;DHT22;19920;52.242;20.940;2024-01-10T06:50:58;-7.50;99.90
33594;DHT22;19920;52.242;20.940;2024-01-10T06:53:24;-7.60;99.90
33594;DHT22;19920;52.242;20.940;2024-01-10T06:55:49;-7.60;99.90
33594;DHT22;19920;52.242;20.940;2024-01-10T06:58:15;-7.50;99.90
33594;DHT22;19920;52.242;20.940;2024-01-10T07:00:41;-7.60;99.90
33594;DHT22;19920;52.242;20.940;2024-01-10T07:03:07;-7.50;99.90
33594;DHT22;19920;52.242;20.940;2024-01-10T07:05:33;-7.50;99.90
33594;DHT22;19920;52.242;20.940;2024-01-10T07:07:59;-7.40;99.90
33594;DHT22;19920;52.242;20.940;2024-01-10T07:10:31;-7.40;99.90
33594;DHT22;19920;52.242;20.940;2024-01-10T07:12:56;-7.40;99.90
33594;DHT22;19920;52.242;20.940;2024-01-10T07:15:22;-7.40;99.90
33594;DHT22;19920;52.242;20.940;2024-01-10T07:17:52;-7.50;99.90
33594;DHT22;19920;52.242;20.940;2024-01-10T07:20:17;-7.40;99.90
33594;DHT22;19920;52.242;20.940;2024-01-10T07:22:43;-7.60;99.90
33594;DHT22;19920;52.242;20.940;2024-01-10T07:25:12;-7.60;99.90
33594;DHT22;19920;52.242;20.940;2024-01-10T07:27:43;-7.50;99.90
33594;DHT22;19920;52.242;20.940;2024-01-10T07:30:09;-7.50;99.90
33594;DHT22;19920;52.242;20.940;2024-01-10T07:32:42;-7.40;99.90
33594;DHT22;19920;52.242;20.940;2024-01-10T07:35:08;-7.40;99.90
33594;DHT22;19920;52.242;20.940;2024-01-10T07:37:38;-7.40;99.90
33594;DHT22;19920;52.242;20.940;2024-01-10T07:40:05;-7.40;99.90
33594;DHT22;19920;52.242;20.940;2024-01-10T07:42:32;-7.40;99.90
33594;DHT22;19920;52.242;20.940;2024-01-10T07:44:58;-7.40;99.90
33594;DHT22;19920;52.242;20.940;2024-01-10T07:47:24;-7.40;99.90
33594;DHT22;19920;52.242;20.940;2024-01-10T07:49:49;-7.30;99.90
33594;DHT22;19920;52.242;20.940;2024-01-10T07:52:15;-7.20;99.90
33594;DHT22;19920;52.242;20.940;2024-01-10T07:54:44;-7.10;99.90
33594;DHT22;19920;52.242;20.940;2024-01-10T07:57:10;-7.20;99.90
33594;DHT22;19920;52.242;20.940;2024-01-10T07:59:35;-7.10;99.90
33594;DHT22;19920;52.242;20.940;2024-01-10T08:02:01;-7.00;99.90
33594;DHT22;19920;52.242;20.940;2024-01-10T08:04:27;-7.00;99.90
33594;DHT22;19920;52.242;20.940;2024-01-10T08:06:53;-6.90;99.90
33594;DHT22;19920;52.242;20.940;2024-01-10T08:09:19;-6.90;99.90
33594;DHT22;19920;52.242;20.940;2024-01-10T08:11:45;-7.00;99.90
33594;DHT22;19920;52.242;20.940;2024-01-10T08:14:11;-6.90;99.90
33594;DHT22;19920;52.242;20.940;2024-01-10T08:16:37;-6.90;99.90
33594;DHT22;19920;52.242;20.940;2024-01-10T08:19:03;-6.80;99.90
33594;DHT22;19920;52.242;20.940;2024-01-10T08:21:29;-6.80;99.90
33594;DHT22;19920;52.242;20.940;2024-01-10T08:23:55;-6.70;99.90
33594;DHT22;19920;52.242;20.940;2024-01-10T08:26:21;-6.70;99.90
33594;DHT22;19920;52.242;20.940;2024-01-10T08:28:46;-6.80;99.90
33594;DHT22;19920;52.242;20.940;2024-01-10T08:31:12;-6.70;99.90
33594;DHT22;19920;52.242;20.940;2024-01-10T08:33:38;-6.70;99.90
33594;DHT22;19920;52.242;20.940;2024-01-10T08:36:04;-6.50;99.90
33594;DHT22;19920;52.242;20.940;2024-01-10T08:38:30;-6.40;99.90
33594;DHT22;19920;52.242;20.940;2024-01-10T08:40:56;-6.40;99.90
33594;DHT22;19920;52.242;20.940;2024-01-10T08:43:22;-6.20;99.90
33594;DHT22;19920;52.242;20.940;2024-01-10T08:45:48;-6.30;99.90
33594;DHT22;19920;52.242;20.940;2024-01-10T08:48:13;-6.30;99.90
33594;DHT22;19920;52.242;20.940;2024-01-10T08:50:39;-6.10;99.90
33594;DHT22;19920;52.242;20.940;2024-01-10T08:53:05;-6.00;99.90
33594;DHT22;19920;52.242;20.940;2024-01-10T08:55:31;-6.00;99.90
33594;DHT22;19920;52.242;20.940;2024-01-10T08:57:57;-6.00;99.90
33594;DHT22;19920;52.242;20.940;2024-01-10T09:00:23;-6.10;99.90
33594;DHT22;19920;52.242;20.940;2024-01-10T09:02:50;-6.20;99.90
33594;DHT22;19920;52.242;20.940;2024-01-10T09:05:16;-6.30;99.90
33594;DHT22;19920;52.242;20.940;2024-01-10T09:07:41;-6.20;99.90
33594;DHT22;19920;52.242;20.940;2024-01-10T09:10:07;-6.10;99.90
33594;DHT22;19920;52.242;20.940;2024-01-10T09:12:33;-6.10;99.90
33594;DHT22;19920;52.242;20.940;2024-01-10T09:14:59;-6.00;99.90
33594;DHT22;19920;52.242;20.940;2024-01-10T09:17:26;-6.10;99.90
33594;DHT22;19920;52.242;20.940;2024-01-10T09:19:53;-6.10;99.90
33594;DHT22;19920;52.242;20.940;2024-01-10T09:22:19;-6.10;99.90
33594;DHT22;19920;52.242;20.940;2024-01-10T09:24:44;-6.10;99.90
33594;DHT22;19920;52.242;20.940;2024-01-10T09:27:10;-6.10;99.90
33594;DHT22;19920;52.242;20.940;2024-01-10T09:29:36;-5.80;99.90
33594;DHT22;19920;52.242;20.940;2024-01-10T09:32:02;-5.80;99.90
33594;DHT22;19920;52.242;20.940;2024-01-10T09:34:28;-5.70;99.90
33594;DHT22;19920;52.242;20.940;2024-01-10T09:36:53;-5.60;99.90
33594;DHT22;19920;52.242;20.940;2024-01-10T09:39:19;-5.50;99.90
33594;DHT22;19920;52.242;20.940;2024-01-10T09:41:49;-5.50;99.90
33594;DHT22;19920;52.242;20.940;2024-01-10T09:44:17;-5.40;99.90
33594;DHT22;19920;52.242;20.940;2024-01-10T09:46:46;-5.30;99.90
33594;DHT22;19920;52.242;20.940;2024-01-10T09:49:13;-5.10;99.90
33594;DHT22;19920;52.242;20.940;2024-01-10T09:51:38;-5.00;99.90
33594;DHT22;19920;52.242;20.940;2024-01-10T09:54:04;-4.90;99.90
33594;DHT22;19920;52.242;20.940;2024-01-10T09:56:31;-4.70;99.90
33594;DHT22;19920;52.242;20.940;2024-01-10T09:58:58;-4.70;99.90
33594;DHT22;19920;52.242;20.940;2024-01-10T10:01:26;-4.80;99.90
33594;DHT22;19920;52.242;20.940;2024-01-10T10:03:53;-4.80;99.90
33594;DHT22;19920;52.242;20.940;2024-01-10T10:06:21;-4.80;99.90
33594;DHT22;19920;52.242;20.940;2024-01-10T10:08:47;-4.80;99.90
33594;DHT22;19920;52.242;20.940;2024-01-10T10:11:13;-4.80;99.90
33594;DHT22;19920;52.242;20.940;2024-01-10T10:13:39;-4.70;99.90
33594;DHT22;19920;52.242;20.940;2024-01-10T10:16:08;-4.50;99.90
33594;DHT22;19920;52.242;20.940;2024-01-10T10:18:35;-4.40;99.90
33594;DHT22;19920;52.242;20.940;2024-01-10T10:21:12;-4.40;99.90
33594;DHT22;19920;52.242;20.940;2024-01-10T10:23:39;-4.30;99.90
33594;DHT22;19920;52.242;20.940;2024-01-10T10:26:15;-4.30;99.90
33594;DHT22;19920;52.242;20.940;2024-01-10T10:28:49;-4.30;99.90
33594;DHT22;19920;52.242;20.940;2024-01-10T10:31:16;-4.10;99.90
33594;DHT22;19920;52.242;20.940;2024-01-10T10:33:43;-4.10;99.90
33594;DHT22;19920;52.242;20.940;2024-01-10T10:36:13;-4.10;99.90
33594;DHT22;19920;52.242;20.940;2024-01-10T10:38:39;-4.10;99.90
33594;DHT22;19920;52.242;20.940;2024-01-10T10:41:06;-4.00;99.90
33594;DHT22;19920;52.242;20.940;2024-01-10T10:43:39;-4.10;99.90
33594;DHT22;19920;52.242;20.940;2024-01-10T10:46:06;-4.30;99.90
33594;DHT22;19920;52.242;20.940;2024-01-10T10:48:33;-4.20;99.90
33594;DHT22;19920;52.242;20.940;2024-01-10T10:51:08;-4.10;99.90
33594;DHT22;19920;52.242;20.940;2024-01-10T10:53:36;-4.10;99.90
33594;DHT22;19920;52.242;20.940;2024-01-10T10:56:06;-3.90;99.90
33594;DHT22;19920;52.242;20.940;2024-01-10T10:58:38;-4.00;99.90
33594;DHT22;19920;52.242;20.940;2024-01-10T11:01:06;-4.10;99.90
33594;DHT22;19920;52.242;20.940;2024-01-10T11:03:34;-4.10;99.90
33594;DHT22;19920;52.242;20.940;2024-01-10T11:06:02;-3.90;99.90
33594;DHT22;19920;52.242;20.940;2024-01-10T11:08:30;-4.00;99.90
33594;DHT22;19920;52.242;20.940;2024-01-10T11:10:58;-3.80;99.90
33594;DHT22;19920;52.242;20.940;2024-01-10T11:19:19;-3.90;99.90
33594;DHT22;19920;52.242;20.940;2024-01-10T11:25:03;-4.10;99.90
33594;DHT22;19920;52.242;20.940;2024-01-10T11:27:29;-4.00;99.90
33594;DHT22;19920;52.242;20.940;2024-01-10T11:29:55;-4.00;99.90
33594;DHT22;19920;52.242;20.940;2024-01-10T11:32:23;-3.90;99.90
33594;DHT22;19920;52.242;20.940;2024-01-10T11:37:20;-3.70;99.90
33594;DHT22;19920;52.242;20.940;2024-01-10T11:39:46;-3.60;99.90
33594;DHT22;19920;52.242;20.940;2024-01-10T11:42:11;-3.60;99.90
33594;DHT22;19920;52.242;20.940;2024-01-10T11:44:50;-3.50;99.90
33594;DHT22;19920;52.242;20.940;2024-01-10T11:47:17;-3.40;99.90
33594;DHT22;19920;52.242;20.940;2024-01-10T11:49:54;-3.50;99.90
33594;DHT22;19920;52.242;20.940;2024-01-10T11:52:22;-3.20;99.90
33594;DHT22;19920;52.242;20.940;2024-01-10T11:54:48;-3.30;99.90
33594;DHT22;19920;52.242;20.940;2024-01-10T11:59:46;-3.30;99.90
33594;DHT22;19920;52.242;20.940;2024-01-10T12:02:13;-3.20;99.90
33594;DHT22;19920;52.242;20.940;2024-01-10T12:04:39;-3.00;99.90
33594;DHT22;19920;52.242;20.940;2024-01-10T12:07:06;-2.90;99.90
33594;DHT22;19920;52.242;20.940;2024-01-10T12:09:36;-3.10;99.90
33594;DHT22;19920;52.242;20.940;2024-01-10T12:12:02;-3.00;99.90
33594;DHT22;19920;52.242;20.940;2024-01-10T12:14:28;-3.10;99.90
33594;DHT22;19920;52.242;20.940;2024-01-10T12:16:54;-3.00;99.90
33594;DHT22;19920;52.242;20.940;2024-01-10T12:19:20;-2.90;99.90
33594;DHT22;19920;52.242;20.940;2024-01-10T12:21:45;-3.00;99.90
33594;DHT22;19920;52.242;20.940;2024-01-10T12:24:11;-3.10;99.90
33594;DHT22;19920;52.242;20.940;2024-01-10T12:26:43;-3.20;99.90
33594;DHT22;19920;52.242;20.940;2024-01-10T12:29:10;-3.00;99.90
33594;DHT22;19920;52.242;20.940;2024-01-10T12:31:37;-2.90;99.90
33594;DHT22;19920;52.242;20.940;2024-01-10T12:34:03;-2.80;99.90
33594;DHT22;19920;52.242;20.940;2024-01-10T12:36:29;-2.90;99.90
33594;DHT22;19920;52.242;20.940;2024-01-10T12:38:54;-2.70;99.90
33594;DHT22;19920;52.242;20.940;2024-01-10T12:41:20;-2.80;99.90
33594;DHT22;19920;52.242;20.940;2024-01-10T12:43:52;-2.90;99.90
33594;DHT22;19920;52.242;20.940;2024-01-10T12:46:19;-2.90;99.90
33594;DHT22;19920;52.242;20.940;2024-01-10T12:48:45;-2.80;99.90
33594;DHT22;19920;52.242;20.940;2024-01-10T12:51:11;-2.80;99.90
33594;DHT22;19920;52.242;20.940;2024-01-10T12:53:39;-2.80;99.90
33594;DHT22;19920;52.242;20.940;2024-01-10T12:56:06;-2.70;99.90
33594;DHT22;19920;52.242;20.940;2024-01-10T12:58:33;-2.60;99.90
33594;DHT22;19920;52.242;20.940;2024-01-10T13:01:00;-2.60;99.90
33594;DHT22;19920;52.242;20.940;2024-01-10T13:03:26;-2.50;99.90
33594;DHT22;19920;52.242;20.940;2024-01-10T13:05:51;-2.50;99.90
33594;DHT22;19920;52.242;20.940;2024-01-10T13:08:18;-2.50;99.90
33594;DHT22;19920;52.242;20.940;2024-01-10T13:10:45;-2.60;99.90
33594;DHT22;19920;52.242;20.940;2024-01-10T13:13:11;-2.70;99.90
33594;DHT22;19920;52.242;20.940;2024-01-10T13:15:37;-2.80;99.90
33594;DHT22;19920;52.242;20.940;2024-01-10T13:18:02;-2.80;99.90
33594;DHT22;19920;52.242;20.940;2024-01-10T13:20:28;-2.80;99.90
33594;DHT22;19920;52.242;20.940;2024-01-10T13:22:54;-2.70;99.90
33594;DHT22;19920;52.242;20.940;2024-01-10T13:25:19;-2.50;99.90
33594;DHT22;19920;52.242;20.940;2024-01-10T13:27:52;-2.60;99.90
33594;DHT22;19920;52.242;20.940;2024-01-10T13:30:18;-2.60;99.90
33594;DHT22;19920;52.242;20.940;2024-01-10T13:32:45;-2.50;99.90
33594;DHT22;19920;52.242;20.940;2024-01-10T13:35:15;-2.60;99.90
33594;DHT22;19920;52.242;20.940;2024-01-10T13:37:42;-2.70;99.90
33594;DHT22;19920;52.242;20.940;2024-01-10T13:40:09;-2.70;99.90
33594;DHT22;19920;52.242;20.940;2024-01-10T13:42:42;-2.50;99.90
33594;DHT22;19920;52.242;20.940;2024-01-10T13:45:08;-2.50;99.90
33594;DHT22;19920;52.242;20.940;2024-01-10T13:47:38;-2.50;99.90
33594;DHT22;19920;52.242;20.940;2024-01-10T13:50:04;-2.50;99.90
33594;DHT22;19920;52.242;20.940;2024-01-10T13:52:34;-2.60;99.90
33594;DHT22;19920;52.242;20.940;2024-01-10T13:55:00;-2.50;99.90
33594;DHT22;19920;52.242;20.940;2024-01-10T13:57:26;-2.60;99.90
33594;DHT22;19920;52.242;20.940;2024-01-10T13:59:52;-2.50;99.90
33594;DHT22;19920;52.242;20.940;2024-01-10T14:02:24;-2.50;99.90
33594;DHT22;19920;52.242;20.940;2024-01-10T14:04:50;-2.70;99.90
33594;DHT22;19920;52.242;20.940;2024-01-10T14:07:15;-2.70;99.90
33594;DHT22;19920;52.242;20.940;2024-01-10T14:09:41;-2.70;99.90
33594;DHT22;19920;52.242;20.940;2024-01-10T14:12:07;-2.80;99.90
33594;DHT22;19920;52.242;20.940;2024-01-10T14:14:32;-2.80;99.90
33594;DHT22;19920;52.242;20.940;2024-01-10T14:16:58;-2.80;99.90
33594;DHT22;19920;52.242;20.940;2024-01-10T14:19:24;-2.90;99.90
33594;DHT22;19920;52.242;20.940;2024-01-10T14:21:49;-3.00;99.90
33594;DHT22;19920;52.242;20.940;2024-01-10T14:24:15;-3.20;99.90
33594;DHT22;19920;52.242;20.940;2024-01-10T14:26:41;-3.20;99.90
33594;DHT22;19920;52.242;20.940;2024-01-10T14:29:07;-3.20;99.90
33594;DHT22;19920;52.242;20.940;2024-01-10T14:31:34;-3.30;99.90
33594;DHT22;19920;52.242;20.940;2024-01-10T14:33:59;-3.30;99.90
33594;DHT22;19920;52.242;20.940;2024-01-10T14:36:25;-3.40;99.90
33594;DHT22;19920;52.242;20.940;2024-01-10T14:38:50;-3.40;99.90
33594;DHT22;19920;52.242;20.940;2024-01-10T14:41:16;-3.50;99.90
33594;DHT22;19920;52.242;20.940;2024-01-10T14:43:42;-3.50;99.90
33594;DHT22;19920;52.242;20.940;2024-01-10T14:46:07;-3.50;99.90
33594;DHT22;19920;52.242;20.940;2024-01-10T14:48:33;-3.60;99.90
33594;DHT22;19920;52.242;20.940;2024-01-10T14:50:59;-3.70;99.90
33594;DHT22;19920;52.242;20.940;2024-01-10T14:53:29;-3.80;99.90
33594;DHT22;19920;52.242;20.940;2024-01-10T14:55:55;-3.80;99.90
33594;DHT22;19920;52.242;20.940;2024-01-10T14:58:21;-3.80;99.90
33594;DHT22;19920;52.242;20.940;2024-01-10T15:00:46;-3.90;99.90
33594;DHT22;19920;52.242;20.940;2024-01-10T15:03:12;-4.20;99.90
33594;DHT22;19920;52.242;20.940;2024-01-10T15:05:40;-4.20;99.90
33594;DHT22;19920;52.242;20.940;2024-01-10T15:08:06;-4.20;99.90
33594;DHT22;19920;52.242;20.940;2024-01-10T15:10:33;-4.20;99.90
33594;DHT22;19920;52.242;20.940;2024-01-10T15:12:59;-4.20;99.90
33594;DHT22;19920;52.242;20.940;2024-01-10T15:15:24;-4.30;99.90
33594;DHT22;19920;52.242;20.940;2024-01-10T15:17:51;-4.30;99.90
33594;DHT22;19920;52.242;20.940;2024-01-10T15:20:16;-4.30;99.90
33594;DHT22;19920;52.242;20.940;2024-01-10T15:22:42;-4.50;99.90
33594;DHT22;19920;52.242;20.940;2024-01-10T15:25:08;-4.50;99.90